Time;durP1;ratioP1;P1;durP2;ratioP2;P2;SDS_P1;SDS_P2;PMS_P1;PMS_P2;Temp;Humidity;BMP_temperature;BMP_pressure;BME280_temperature;BME280_humidity;BME280_pressure;Samples;Min_cycle;Max_cycle;Signal;HPM_P1;HPM_P2
2021/11/21 00:00:27;;;;;;;14.57;9.48;;;9.20;99.90;;;;;;5023522;28;20102;-65
2021/11/21 00:02:53;;;;;;;16.40;9.63;;;9.20;99.90;;;;;;5021647;28;20064;-65
2021/11/21 00:05:19;;;;;;;19.48;10.32;;;9.20;99.90;;;;;;5009233;28;20087;-65
2021/11/21 00:07:45;;;;;;;16.33;9.40;;;9.20;99.90;;;;;;5019267;28;20084;-65
2021/11/21 00:10:11;;;;;;;18.30;10.15;;;9.20;99.90;;;;;;5025382;28;20037;-65
2021/11/21 00:12:37;;;;;;;19.88;10.52;;;9.20;99.90;;;;;;4994194;28;20465;-65
2021/11/21 00:15:05;;;;;;;17.58;11.38;;;9.20;99.90;;;;;;5020093;28;20036;-65
2021/11/21 00:17:31;;;;;;;18.10;10.77;;;9.20;99.90;;;;;;5009437;28;20510;-65
2021/11/21 00:19:57;;;;;;;20.60;12.05;;;9.20;99.90;;;;;;5019412;28;20038;-65
2021/11/21 00:22:24;;;;;;;19.85;12.30;;;9.20;99.90;;;;;;5025878;28;20049;-65
2021/11/21 00:24:50;;;;;;;23.95;13.07;;;9.20;99.90;;;;;;5008811;28;20057;-65
2021/11/21 00:27:15;;;;;;;22.08;14.40;;;9.20;99.90;;;;;;5025806;28;20552;-65
2021/11/21 00:29:41;;;;;;;24.48;15.00;;;9.20;99.90;;;;;;5026966;28;20033;-65
2021/11/21 00:32:07;;;;;;;25.73;14.65;;;9.20;99.90;;;;;;5029211;28;20045;-64
2021/11/21 00:34:33;;;;;;;22.98;14.45;;;9.20;99.90;;;;;;5003051;28;20496;-65
2021/11/21 00:36:59;;;;;;;26.40;14.95;;;9.20;99.90;;;;;;5008589;28;20191;-65
2021/11/21 00:39:25;;;;;;;24.90;13.82;;;9.20;99.90;;;;;;5025830;28;20069;-65
2021/11/21 00:41:52;;;;;;;19.90;13.65;;;9.20;99.90;;;;;;5030455;28;20045;-65
2021/11/21 00:44:19;;;;;;;21.80;14.63;;;9.20;99.90;;;;;;5022193;28;20607;-65
2021/11/21 00:46:45;;;;;;;24.40;15.43;;;9.20;99.90;;;;;;5014488;28;20064;-65
2021/11/21 00:49:16;;;;;;;26.80;14.88;;;9.20;99.90;;;;;;5026756;28;20041;-65
2021/11/21 00:51:43;;;;;;;22.15;14.57;;;9.20;99.90;;;;;;5004120;28;20053;-65
2021/11/21 00:57:08;;;;;;;24.02;14.82;;;9.20;99.90;;;;;;4984649;28;20037;-65
2021/11/21 00:59:34;;;;;;;25.80;15.52;;;9.20;99.90;;;;;;5024718;28;20454;-65
2021/11/21 01:02:01;;;;;;;22.00;14.95;;;9.20;99.90;;;;;;5027239;28;20121;-65
2021/11/21 01:04:27;;;;;;;27.15;15.57;;;9.20;99.90;;;;;;5027397;28;20037;-65
2021/11/21 01:06:53;;;;;;;23.55;15.23;;;9.20;99.90;;;;;;5021182;28;20033;-65
2021/11/21 01:09:23;;;;;;;24.92;15.02;;;9.20;99.90;;;;;;5007840;28;20037;-65
2021/11/21 01:11:49;;;;;;;25.13;15.40;;;9.20;99.90;;;;;;5021192;28;20502;-66
2021/11/21 01:14:15;;;;;;;29.42;16.55;;;9.20;99.90;;;;;;5012609;28;20041;-66
2021/11/21 01:16:41;;;;;;;24.90;15.27;;;9.20;99.90;;;;;;5022021;28;20475;-66
2021/11/21 01:19:07;;;;;;;23.45;15.20;;;9.20;99.90;;;;;;5032193;28;20037;-66
2021/11/21 01:21:32;;;;;;;26.05;14.52;;;9.20;99.90;;;;;;5025169;28;20037;-66
2021/11/21 01:23:58;;;;;;;28.95;16.10;;;9.20;99.90;;;;;;5028443;28;20041;-66
2021/11/21 01:26:24;;;;;;;22.35;14.70;;;9.20;99.90;;;;;;5024297;28;20135;-66
2021/11/21 01:28:50;;;;;;;21.77;14.77;;;9.20;99.90;;;;;;5027883;28;20429;-66
2021/11/21 01:31:16;;;;;;;21.42;14.73;;;9.30;99.90;;;;;;5022065;28;20434;-66
2021/11/21 01:33:41;;;;;;;27.58;15.73;;;9.10;99.90;;;;;;5029872;28;20040;-65
2021/11/21 01:36:07;;;;;;;24.20;15.13;;;9.20;99.90;;;;;;5022047;28;20095;-65
2021/11/21 01:38:33;;;;;;;27.42;14.85;;;9.20;99.90;;;;;;5028578;28;20428;-65
2021/11/21 01:40:59;;;;;;;24.40;15.30;;;9.20;99.90;;;;;;5024731;28;20046;-66
2021/11/21 01:43:25;;;;;;;23.27;15.18;;;9.20;99.90;;;;;;5001152;28;20491;-66
2021/11/21 01:45:50;;;;;;;24.58;15.45;;;9.20;99.90;;;;;;5028756;28;20095;-66
2021/11/21 01:48:16;;;;;;;22.65;14.23;;;9.20;99.90;;;;;;5020753;28;20065;-66
2021/11/21 01:50:44;;;;;;;23.15;14.60;;;9.10;99.90;;;;;;5029141;28;20041;-66
2021/11/21 01:53:11;;;;;;;26.92;14.93;;;9.20;99.90;;;;;;5006524;28;20040;-66
2021/11/21 01:55:39;;;;;;;22.67;15.05;;;9.20;99.90;;;;;;5024877;28;20041;-66
2021/11/21 01:58:05;;;;;;;27.85;16.00;;;9.20;99.90;;;;;;5021286;28;20052;-65
2021/11/21 02:00:34;;;;;;;29.25;15.23;;;9.20;99.90;;;;;;5024336;28;20042;-66
2021/11/21 02:03:00;;;;;;;25.05;16.00;;;9.20;99.90;;;;;;5020715;28;20048;-66
2021/11/21 02:05:26;;;;;;;24.55;15.00;;;9.20;99.90;;;;;;5009826;28;20400;-66
2021/11/21 02:07:52;;;;;;;27.02;15.02;;;9.20;99.90;;;;;;5020832;28;20144;-66
2021/11/21 02:10:20;;;;;;;25.88;15.02;;;9.20;99.90;;;;;;5028545;28;20422;-66
2021/11/21 02:12:47;;;;;;;20.77;13.38;;;9.20;99.90;;;;;;5004045;28;20054;-66
2021/11/21 02:15:19;;;;;;;23.95;14.32;;;9.20;99.90;;;;;;5025150;28;20037;-66
2021/11/21 02:17:45;;;;;;;25.85;15.27;;;9.20;99.90;;;;;;5022911;28;20113;-66
2021/11/21 02:20:16;;;;;;;24.80;14.85;;;9.20;99.90;;;;;;5027744;28;20061;-66
2021/11/21 02:22:42;;;;;;;26.48;15.77;;;9.20;99.90;;;;;;5028332;28;20041;-66
2021/11/21 02:25:10;;;;;;;28.67;15.77;;;9.20;99.90;;;;;;5021603;28;20382;-66
2021/11/21 02:27:36;;;;;;;26.50;14.73;;;9.30;99.90;;;;;;5009833;28;20041;-66
2021/11/21 02:30:05;;;;;;;23.27;14.25;;;9.20;99.90;;;;;;5023086;28;20120;-66
2021/11/21 02:32:31;;;;;;;30.30;13.60;;;9.20;99.90;;;;;;5025011;28;20383;-66
2021/11/21 02:34:57;;;;;;;21.52;12.70;;;9.20;99.90;;;;;;5021644;28;20056;-66
2021/11/21 02:37:22;;;;;;;22.30;11.80;;;9.20;99.90;;;;;;5011459;28;20107;-66
2021/11/21 02:39:48;;;;;;;16.70;10.43;;;9.20;99.90;;;;;;5022044;28;20540;-66
2021/11/21 02:42:26;;;;;;;18.10;10.65;;;9.20;99.90;;;;;;5023820;28;20540;-66
2021/11/21 02:44:52;;;;;;;20.60;10.40;;;9.20;99.90;;;;;;5019845;28;20081;-65
2021/11/21 02:47:18;;;;;;;25.38;11.55;;;9.20;99.90;;;;;;5026951;28;20077;-65
2021/11/21 02:49:43;;;;;;;21.92;11.68;;;9.20;99.90;;;;;;5022756;28;20041;-66
2021/11/21 02:52:09;;;;;;;19.85;10.57;;;9.30;99.90;;;;;;5025854;28;20397;-66
2021/11/21 02:54:35;;;;;;;22.58;10.50;;;9.20;99.90;;;;;;5022037;28;20173;-66
2021/11/21 02:57:01;;;;;;;26.73;12.07;;;9.20;99.90;;;;;;5022396;28;20539;-66
2021/11/21 02:59:27;;;;;;;35.05;13.65;;;9.20;99.90;;;;;;5003166;28;20045;-66
2021/11/21 03:01:53;;;;;;;22.35;12.13;;;9.20;99.90;;;;;;5010385;28;20081;-65
2021/11/21 03:04:23;;;;;;;16.80;9.82;;;9.20;99.90;;;;;;5008530;28;20081;-65
2021/11/21 03:06:49;;;;;;;17.42;9.57;;;9.20;99.90;;;;;;5023547;28;20499;-65
2021/11/21 03:09:22;;;;;;;19.27;10.55;;;9.30;99.90;;;;;;5024613;28;20045;-65
2021/11/21 03:11:53;;;;;;;23.00;10.93;;;9.20;99.90;;;;;;5020431;28;20064;-65
2021/11/21 03:14:19;;;;;;;13.13;9.50;;;9.20;99.90;;;;;;5029815;28;20045;-66
2021/11/21 03:16:49;;;;;;;15.85;9.35;;;9.20;99.90;;;;;;5006019;28;20057;-66
2021/11/21 03:19:14;;;;;;;19.08;10.13;;;9.20;99.90;;;;;;5023095;28;20095;-66
2021/11/21 03:21:41;;;;;;;20.15;10.63;;;9.20;99.90;;;;;;5021318;28;20080;-66
2021/11/21 03:24:07;;;;;;;16.63;9.93;;;9.20;99.90;;;;;;5007573;28;20513;-66
2021/11/21 03:26:33;;;;;;;32.95;11.82;;;9.20;99.90;;;;;;5021505;28;20044;-66
2021/11/21 03:28:59;;;;;;;15.27;8.88;;;9.20;99.90;;;;;;5025397;28;20110;-65
2021/11/21 03:31:25;;;;;;;23.05;10.18;;;9.20;99.90;;;;;;5024003;28;20171;-65
2021/11/21 03:33:51;;;;;;;12.45;7.28;;;9.20;99.90;;;;;;5008056;28;20049;-65
2021/11/21 03:36:16;;;;;;;31.75;10.13;;;9.20;99.90;;;;;;5002327;28;20065;-65
2021/11/21 03:38:42;;;;;;;14.18;7.18;;;9.20;99.90;;;;;;5022675;28;20041;-65
2021/11/21 03:41:08;;;;;;;10.98;5.85;;;9.20;99.90;;;;;;5024458;28;20119;-65
2021/11/21 03:43:34;;;;;;;11.13;6.28;;;9.20;99.90;;;;;;5026021;28;20473;-65
2021/11/21 03:46:00;;;;;;;12.05;5.57;;;9.20;99.90;;;;;;5020712;28;20061;-65
2021/11/21 03:48:25;;;;;;;13.07;5.90;;;9.20;99.90;;;;;;5023180;28;20540;-65
2021/11/21 03:50:51;;;;;;;8.13;4.90;;;9.10;99.90;;;;;;5028192;28;20410;-65
2021/11/21 03:53:18;;;;;;;9.15;4.85;;;9.10;99.90;;;;;;5021463;28;20037;-65
2021/11/21 03:55:45;;;;;;;11.80;5.25;;;9.20;99.90;;;;;;5023269;28;20321;-65
2021/11/21 03:58:11;;;;;;;9.88;5.25;;;9.20;99.90;;;;;;5004449;28;20128;-65
2021/11/21 04:00:37;;;;;;;10.60;5.18;;;9.20;99.90;;;;;;5032572;28;20045;-65
2021/11/21 04:03:05;;;;;;;13.00;4.65;;;9.10;99.90;;;;;;5005147;28;20417;-65
2021/11/21 04:05:31;;;;;;;10.70;4.25;;;9.10;99.90;;;;;;5011781;28;20046;-65
2021/11/21 04:07:57;;;;;;;8.77;5.07;;;9.10;99.90;;;;;;5007019;28;20045;-65
2021/11/21 04:10:23;;;;;;;10.23;5.20;;;9.10;99.90;;;;;;5031268;28;20049;-65
2021/11/21 04:12:49;;;;;;;9.82;4.63;;;9.10;99.90;;;;;;5006461;28;20539;-65
2021/11/21 04:15:15;;;;;;;12.85;4.88;;;9.10;99.90;;;;;;5029918;28;20034;-65
2021/11/21 04:17:42;;;;;;;11.27;4.78;;;9.10;99.90;;;;;;5025900;28;20049;-65
2021/11/21 04:20:10;;;;;;;10.93;4.90;;;9.10;99.90;;;;;;5028725;28;20126;-65
2021/11/21 04:22:36;;;;;;;10.88;4.22;;;9.10;99.90;;;;;;5024004;28;20041;-65
2021/11/21 04:25:03;;;;;;;15.05;4.90;;;9.10;99.90;;;;;;5016213;28;20045;-65
2021/11/21 04:27:29;;;;;;;8.27;3.90;;;9.10;99.90;;;;;;5006800;28;20053;-65
2021/11/21 04:29:56;;;;;;;13.52;4.60;;;9.10;99.90;;;;;;5022526;28;20382;-65
2021/11/21 04:32:23;;;;;;;8.60;3.78;;;9.00;99.90;;;;;;5029266;28;20045;-65
2021/11/21 04:34:49;;;;;;;8.63;3.70;;;9.00;99.90;;;;;;5007874;28;20053;-65
2021/11/21 04:37:16;;;;;;;7.28;3.67;;;9.00;99.90;;;;;;5030058;28;20042;-65
2021/11/21 04:39:41;;;;;;;10.50;4.00;;;9.00;99.90;;;;;;5024335;28;20041;-65
2021/11/21 04:42:07;;;;;;;11.38;4.25;;;9.00;99.90;;;;;;5029901;28;20490;-65
2021/11/21 04:44:33;;;;;;;9.48;4.00;;;9.00;99.90;;;;;;5024197;28;20140;-65
2021/11/21 04:46:59;;;;;;;10.82;3.80;;;9.00;99.90;;;;;;5028274;28;20045;-65
2021/11/21 04:49:24;;;;;;;13.63;3.90;;;8.90;99.90;;;;;;5021616;28;20048;-65
2021/11/21 04:51:50;;;;;;;12.20;3.50;;;8.90;99.90;;;;;;5030552;28;20037;-65
2021/11/21 04:54:18;;;;;;;8.68;2.92;;;8.90;99.90;;;;;;5023487;28;20033;-65
2021/11/21 04:56:46;;;;;;;9.93;2.83;;;8.90;99.90;;;;;;5030546;28;20034;-65
2021/11/21 04:59:15;;;;;;;5.75;1.98;;;8.90;99.90;;;;;;5023581;28;20351;-65
2021/11/21 05:01:43;;;;;;;10.05;2.35;;;8.90;99.90;;;;;;5012902;28;20069;-65
2021/11/21 05:04:09;;;;;;;15.00;1.88;;;8.90;99.90;;;;;;5020692;28;20469;-65
2021/11/21 05:06:35;;;;;;;16.30;1.77;;;8.80;99.90;;;;;;5028887;28;20116;-65
2021/11/21 05:09:02;;;;;;;10.85;1.27;;;8.90;99.90;;;;;;5029639;28;20042;-65
2021/11/21 05:11:28;;;;;;;8.63;0.77;;;8.80;99.90;;;;;;5006429;28;20068;-65
2021/11/21 05:13:55;;;;;;;12.43;1.58;;;8.80;99.90;;;;;;5024996;28;20038;-65
2021/11/21 05:16:20;;;;;;;14.98;1.30;;;8.80;99.90;;;;;;5004081;28;20042;-65
2021/11/21 05:18:46;;;;;;;10.00;2.00;;;8.80;99.90;;;;;;5028039;28;20057;-65
2021/11/21 05:21:12;;;;;;;10.82;1.27;;;8.80;99.90;;;;;;5022630;28;20077;-65
2021/11/21 05:23:37;;;;;;;10.05;1.27;;;8.80;99.90;;;;;;5025882;28;20040;-64
2021/11/21 05:26:03;;;;;;;14.52;1.33;;;8.80;99.90;;;;;;5005399;28;20483;-65
2021/11/21 05:28:29;;;;;;;13.82;1.13;;;8.70;99.90;;;;;;5027497;28;20410;-65
2021/11/21 05:30:55;;;;;;;8.48;1.27;;;8.70;99.90;;;;;;5021754;28;20045;-65
2021/11/21 05:33:20;;;;;;;14.10;1.00;;;8.70;99.90;;;;;;5026082;28;20033;-65
2021/11/21 05:35:46;;;;;;;12.13;0.80;;;8.70;99.90;;;;;;5006507;28;20406;-65
2021/11/21 05:38:12;;;;;;;10.10;0.95;;;8.60;99.90;;;;;;5028373;28;20120;-65
2021/11/21 05:40:38;;;;;;;14.02;1.38;;;8.60;99.90;;;;;;5022608;28;20037;-65
2021/11/21 05:43:03;;;;;;;10.77;1.27;;;8.60;99.90;;;;;;5027695;28;20451;-65
2021/11/21 05:45:29;;;;;;;14.35;1.17;;;8.60;99.90;;;;;;5030786;28;20085;-65
2021/11/21 05:47:56;;;;;;;9.27;0.75;;;8.60;99.90;;;;;;5004491;28;20072;-65
2021/11/21 05:50:22;;;;;;;14.13;1.15;;;8.60;99.90;;;;;;5024687;28;20033;-65
2021/11/21 05:52:49;;;;;;;11.30;1.10;;;8.60;99.90;;;;;;5003497;28;20052;-65
2021/11/21 05:55:17;;;;;;;12.48;1.52;;;8.60;99.90;;;;;;5026700;28;20045;-65
2021/11/21 05:57:43;;;;;;;14.75;1.02;;;8.50;99.90;;;;;;5021652;28;20036;-65
2021/11/21 06:00:14;;;;;;;14.52;1.23;;;8.50;99.90;;;;;;5025459;28;20034;-65
2021/11/21 06:02:40;;;;;;;13.65;1.27;;;8.50;99.90;;;;;;5023400;28;20046;-65
2021/11/21 06:05:08;;;;;;;12.45;0.82;;;8.50;99.90;;;;;;5027104;28;20080;-65
2021/11/21 06:07:34;;;;;;;11.55;1.17;;;8.50;99.90;;;;;;5019864;28;20029;-65
2021/11/21 06:10:03;;;;;;;14.38;1.45;;;8.50;99.90;;;;;;5027008;28;20032;-65
2021/11/21 06:12:30;;;;;;;7.90;1.00;;;8.40;99.90;;;;;;5021076;28;20088;-65
2021/11/21 06:14:56;;;;;;;11.98;1.45;;;8.40;99.90;;;;;;5028069;28;20045;-65
2021/11/21 06:17:21;;;;;;;7.68;1.02;;;8.40;99.90;;;;;;5022833;28;20029;-65
2021/11/21 06:19:47;;;;;;;11.68;1.75;;;8.30;99.90;;;;;;5029806;28;20316;-65
2021/11/21 06:22:14;;;;;;;13.60;1.60;;;8.30;99.90;;;;;;5023097;28;20042;-65
2021/11/21 06:24:40;;;;;;;14.40;1.58;;;8.30;99.90;;;;;;5028219;28;20103;-65
2021/11/21 06:27:06;;;;;;;11.90;1.20;;;8.30;99.90;;;;;;5024316;28;20413;-65
2021/11/21 06:29:32;;;;;;;10.30;1.00;;;8.20;99.90;;;;;;5005731;28;20474;-65
2021/11/21 06:31:58;;;;;;;10.80;1.30;;;8.20;99.90;;;;;;5028047;28;20041;-65
2021/11/21 06:34:24;;;;;;;15.55;1.58;;;8.10;99.90;;;;;;5021952;28;20087;-65
2021/11/21 06:36:50;;;;;;;15.70;1.63;;;8.10;99.90;;;;;;5027655;28;20029;-65
2021/11/21 06:39:16;;;;;;;18.45;1.23;;;8.00;99.90;;;;;;5023140;28;20042;-65
2021/11/21 06:41:42;;;;;;;15.25;1.63;;;7.90;99.90;;;;;;5026424;28;20454;-65
2021/11/21 06:44:09;;;;;;;11.48;0.90;;;7.90;99.90;;;;;;5016869;28;20034;-65
2021/11/21 06:46:35;;;;;;;12.75;1.17;;;7.80;99.90;;;;;;5011933;28;20505;-65
2021/11/21 06:49:01;;;;;;;16.00;1.25;;;7.70;99.90;;;;;;5006171;28;20126;-65
2021/11/21 06:51:28;;;;;;;11.52;0.95;;;7.70;99.90;;;;;;5008553;28;20088;-65
2021/11/21 06:53:54;;;;;;;14.02;1.35;;;7.60;99.90;;;;;;5021797;28;20045;-65
2021/11/21 06:56:20;;;;;;;10.52;1.00;;;7.50;99.90;;;;;;5028815;28;20029;-65
2021/11/21 06:58:47;;;;;;;12.20;1.25;;;7.50;99.90;;;;;;5018490;28;20553;-65
2021/11/21 07:01:14;;;;;;;11.35;0.98;;;7.40;99.90;;;;;;5026045;28;20144;-65
2021/11/21 07:03:40;;;;;;;14.35;1.30;;;7.30;99.90;;;;;;5005651;28;20155;-65
2021/11/21 07:06:05;;;;;;;8.63;1.05;;;7.30;99.90;;;;;;5010096;28;20045;-65
2021/11/21 07:08:31;;;;;;;14.90;1.98;;;7.20;99.90;;;;;;5026286;28;20132;-65
2021/11/21 07:10:57;;;;;;;14.82;1.45;;;7.20;99.90;;;;;;5020537;28;20538;-65
2021/11/21 07:13:23;;;;;;;11.73;1.15;;;7.00;99.90;;;;;;5026891;28;20041;-65
2021/11/21 07:15:50;;;;;;;9.43;0.98;;;6.90;99.90;;;;;;5023630;28;20041;-65
2021/11/21 07:18:16;;;;;;;15.20;1.15;;;6.90;99.90;;;;;;5005968;28;20050;-65
2021/11/21 07:20:42;;;;;;;12.27;0.85;;;6.90;99.90;;;;;;5018722;28;20036;-65
2021/11/21 07:23:10;;;;;;;14.88;1.13;;;6.80;99.90;;;;;;5026199;28;20041;-65
2021/11/21 07:25:36;;;;;;;16.67;1.15;;;6.70;99.90;;;;;;5022911;28;20111;-65
2021/11/21 07:28:02;;;;;;;15.77;1.60;;;6.70;99.90;;;;;;5024591;28;20250;-65
2021/11/21 07:30:28;;;;;;;15.25;1.52;;;6.60;99.90;;;;;;5004128;28;20048;-65
2021/11/21 07:32:54;;;;;;;10.60;1.58;;;6.60;99.90;;;;;;5026961;28;20087;-65
2021/11/21 07:35:24;;;;;;;18.25;1.52;;;6.50;99.90;;;;;;5015823;28;20037;-65
2021/11/21 07:37:50;;;;;;;9.68;1.23;;;6.50;99.90;;;;;;5027658;28;20434;-65
2021/11/21 07:40:17;;;;;;;11.52;1.80;;;6.40;99.90;;;;;;5005622;28;20116;-65
2021/11/21 07:42:44;;;;;;;9.10;1.15;;;6.30;99.90;;;;;;5005424;28;20072;-65
2021/11/21 07:45:11;;;;;;;9.07;0.90;;;6.40;99.90;;;;;;5026916;28;20049;-65
2021/11/21 07:47:39;;;;;;;14.82;1.30;;;6.30;99.90;;;;;;5021930;28;20099;-65
2021/11/21 07:50:05;;;;;;;14.63;1.10;;;6.20;99.90;;;;;;5025699;28;20049;-65
2021/11/21 07:52:31;;;;;;;9.77;1.25;;;6.20;99.90;;;;;;5021798;28;20532;-65
2021/11/21 07:54:57;;;;;;;13.55;1.30;;;6.20;99.90;;;;;;5025009;28;20061;-65
2021/11/21 07:57:22;;;;;;;12.40;1.23;;;6.10;99.90;;;;;;5023183;28;20040;-65
2021/11/21 07:59:48;;;;;;;10.35;0.88;;;6.00;99.90;;;;;;5026302;28;20068;-65
2021/11/21 08:02:14;;;;;;;16.35;1.13;;;6.00;99.90;;;;;;5004091;28;20045;-65
2021/11/21 08:04:39;;;;;;;13.68;1.67;;;6.00;99.90;;;;;;5026077;28;20104;-65
2021/11/21 08:07:08;;;;;;;10.60;1.13;;;6.00;99.90;;;;;;5022383;28;20049;-65
2021/11/21 08:09:34;;;;;;;13.65;1.45;;;6.00;99.90;;;;;;5025338;28;20053;-65
2021/11/21 08:11:59;;;;;;;15.85;1.83;;;6.10;99.90;;;;;;5020660;28;20426;-65
2021/11/21 08:14:25;;;;;;;9.52;1.08;;;6.10;99.90;;;;;;5028369;28;20034;-65
2021/11/21 08:16:51;;;;;;;14.25;1.38;;;6.10;99.90;;;;;;5003656;28;20049;-65
2021/11/21 08:19:17;;;;;;;13.35;1.55;;;6.20;99.90;;;;;;5008072;28;20478;-65
2021/11/21 08:21:42;;;;;;;14.90;1.27;;;6.30;99.90;;;;;;5021449;28;20508;-65
2021/11/21 08:24:08;;;;;;;13.20;1.35;;;6.40;99.90;;;;;;5024584;28;20030;-65
2021/11/21 08:26:35;;;;;;;13.60;1.67;;;6.40;99.90;;;;;;5024261;28;20139;-65
2021/11/21 08:29:02;;;;;;;16.08;1.98;;;6.50;99.90;;;;;;5003808;28;20524;-65
2021/11/21 08:31:27;;;;;;;13.70;1.65;;;6.50;99.90;;;;;;5024826;28;20057;-65
2021/11/21 08:33:53;;;;;;;20.40;2.22;;;6.60;99.90;;;;;;5021959;28;20120;-65
2021/11/21 08:36:19;;;;;;;18.85;1.35;;;6.60;99.90;;;;;;5025187;28;20033;-65
2021/11/21 08:38:45;;;;;;;22.33;2.13;;;6.70;99.90;;;;;;5017097;28;20186;-65
2021/11/21 08:41:10;;;;;;;22.08;1.88;;;6.80;99.90;;;;;;5011311;28;20045;-65
2021/11/21 08:43:36;;;;;;;14.32;1.33;;;6.90;99.90;;;;;;5020992;28;20497;-65
2021/11/21 08:46:02;;;;;;;13.82;1.35;;;7.00;99.90;;;;;;5026870;28;20053;-65
2021/11/21 08:48:27;;;;;;;11.50;1.42;;;7.00;99.90;;;;;;5004507;28;20052;-65
2021/11/21 08:50:54;;;;;;;12.52;1.60;;;6.90;99.90;;;;;;5032062;28;20116;-65
2021/11/21 08:53:20;;;;;;;16.77;2.30;;;7.00;99.90;;;;;;5019079;28;20071;-65
2021/11/21 08:55:46;;;;;;;12.95;1.80;;;7.00;99.90;;;;;;5012747;28;20044;-65
2021/11/21 08:58:12;;;;;;;11.40;1.30;;;7.00;99.90;;;;;;5006431;28;20035;-65
2021/11/21 09:00:38;;;;;;;15.10;1.73;;;7.10;99.90;;;;;;5028720;28;20083;-65
2021/11/21 09:03:04;;;;;;;14.60;1.70;;;7.10;99.90;;;;;;5025546;28;20161;-65
2021/11/21 09:05:30;;;;;;;11.30;1.23;;;7.10;99.90;;;;;;5025174;28;20514;-65
2021/11/21 09:07:56;;;;;;;10.52;1.60;;;7.10;99.90;;;;;;5029673;28;20045;-65
2021/11/21 09:10:22;;;;;;;14.10;1.27;;;7.10;99.90;;;;;;5026079;28;20103;-66
2021/11/21 09:12:49;;;;;;;10.45;1.25;;;7.20;99.90;;;;;;5026807;28;20406;-66
2021/11/21 09:15:18;;;;;;;11.82;1.50;;;7.20;99.90;;;;;;5022317;28;20676;-65
2021/11/21 09:17:50;;;;;;;14.80;1.63;;;7.30;99.90;;;;;;5029217;28;20479;-66
2021/11/21 09:20:16;;;;;;;13.40;1.77;;;7.20;99.90;;;;;;5023359;28;20117;-65
2021/11/21 09:22:41;;;;;;;13.65;1.30;;;7.30;99.90;;;;;;5007187;28;20120;-66
2021/11/21 09:25:08;;;;;;;12.48;1.52;;;7.40;99.90;;;;;;5023212;28;20037;-65
2021/11/21 09:27:35;;;;;;;16.48;1.75;;;7.40;99.90;;;;;;5027081;28;20056;-65
2021/11/21 09:30:03;;;;;;;12.35;1.23;;;7.50;99.90;;;;;;4998884;28;20137;-65
2021/11/21 09:32:29;;;;;;;14.43;1.77;;;7.70;99.90;;;;;;5027107;28;20076;-65
2021/11/21 09:34:55;;;;;;;10.57;1.50;;;7.90;99.90;;;;;;5022987;28;20474;-66
2021/11/21 09:37:20;;;;;;;12.82;1.45;;;8.00;99.90;;;;;;5028324;28;20033;-66
2021/11/21 09:39:46;;;;;;;11.73;1.40;;;8.10;99.90;;;;;;5021840;28;20029;-66
2021/11/21 09:42:14;;;;;;;9.68;1.40;;;8.10;99.90;;;;;;5028672;28;20116;-66
2021/11/21 09:44:40;;;;;;;9.35;1.58;;;8.20;99.90;;;;;;5012839;28;20069;-66
2021/11/21 09:47:06;;;;;;;11.07;1.30;;;8.30;99.90;;;;;;5022194;28;20458;-65
2021/11/21 09:49:32;;;;;;;12.60;1.60;;;8.30;99.90;;;;;;5022514;28;20033;-65
2021/11/21 09:51:57;;;;;;;20.75;7.78;;;8.40;99.90;;;;;;5006639;28;20072;-65
2021/11/21 09:54:29;;;;;;;10.13;1.80;;;8.50;99.90;;;;;;5030484;28;20281;-65
2021/11/21 09:56:56;;;;;;;12.32;1.60;;;8.50;99.90;;;;;;5021057;28;20041;-65
2021/11/21 09:59:54;;;;;;;12.93;1.63;;;8.40;99.90;;;;;;5025299;28;20104;-66
2021/11/21 10:03:06;;;;;;;14.93;1.85;;;8.50;99.90;;;;;;5021217;28;20083;-65
2021/11/21 10:05:39;;;;;;;8.95;1.40;;;8.50;99.90;;;;;;5021311;28;20069;-65
2021/11/21 10:08:14;;;;;;;13.27;1.35;;;8.50;99.90;;;;;;5026393;28;20076;-65
2021/11/21 10:10:51;;;;;;;10.68;1.38;;;8.50;99.90;;;;;;5029639;28;20037;-65
2021/11/21 10:13:42;;;;;;;10.18;1.20;;;8.60;99.90;;;;;;5022468;28;20132;-66
2021/11/21 10:16:19;;;;;;;10.07;1.20;;;8.80;99.90;;;;;;5018758;28;20073;-65
2021/11/21 10:18:45;;;;;;;12.15;1.35;;;8.90;99.90;;;;;;5029672;28;20042;-65
2021/11/21 10:21:11;;;;;;;14.68;1.27;;;9.10;99.90;;;;;;5026893;28;20405;-65
2021/11/21 10:23:37;;;;;;;12.60;1.50;;;9.10;99.90;;;;;;5021475;28;20045;-65
2021/11/21 10:26:02;;;;;;;11.05;1.55;;;9.20;99.90;;;;;;5027749;28;20187;-65
2021/11/21 10:28:31;;;;;;;8.65;1.50;;;9.20;99.90;;;;;;5022485;28;20037;-65
2021/11/21 10:31:10;;;;;;;7.22;1.23;;;9.10;99.90;;;;;;5028419;28;20047;-65
2021/11/21 10:33:48;;;;;;;11.20;1.52;;;9.00;99.90;;;;;;5018313;28;20045;-65
2021/11/21 10:36:16;;;;;;;10.32;1.85;;;9.00;99.90;;;;;;5022911;28;20038;-65
2021/11/21 10:38:44;;;;;;;8.75;0.95;;;8.90;99.90;;;;;;5021966;28;20049;-65
2021/11/21 10:41:22;;;;;;;9.00;1.10;;;8.90;99.90;;;;;;5027865;28;20045;-65
2021/11/21 10:43:57;;;;;;;8.35;1.17;;;8.90;99.90;;;;;;5018326;28;20033;-65
2021/11/21 10:46:25;;;;;;;14.65;1.83;;;8.90;99.90;;;;;;5009963;28;20079;-65
2021/11/21 10:48:52;;;;;;;4.93;0.88;;;8.90;99.90;;;;;;5004814;28;20045;-65
2021/11/21 10:51:22;;;;;;;8.43;1.30;;;8.90;99.90;;;;;;5028169;28;20401;-65
2021/11/21 10:53:49;;;;;;;8.80;1.42;;;8.90;99.90;;;;;;5021036;28;20490;-65
2021/11/21 10:56:15;;;;;;;6.85;1.00;;;8.90;99.90;;;;;;5010521;28;20111;-65
2021/11/21 10:58:50;;;;;;;13.38;5.00;;;8.90;99.90;;;;;;5022050;28;20034;-65
2021/11/21 11:01:26;;;;;;;19.35;4.28;;;8.90;99.90;;;;;;5028697;28;20041;-65
2021/11/21 11:04:12;;;;;;;15.70;1.45;;;9.00;99.90;;;;;;5003875;28;20091;-65
2021/11/21 11:06:39;;;;;;;10.45;1.40;;;9.00;99.90;;;;;;5020385;28;20037;-65
2021/11/21 11:09:16;;;;;;;10.57;1.17;;;9.00;99.90;;;;;;5023070;28;20398;-65
2021/11/21 11:11:42;;;;;;;12.23;1.17;;;9.00;99.90;;;;;;5029032;28;20042;-65
2021/11/21 11:14:08;;;;;;;10.60;1.48;;;9.10;99.90;;;;;;5019104;28;20123;-65
2021/11/21 11:16:33;;;;;;;12.20;1.20;;;9.10;99.90;;;;;;5026953;28;20029;-65
2021/11/21 11:19:01;;;;;;;9.73;1.08;;;9.30;99.90;;;;;;5024156;28;20032;-65
2021/11/21 11:21:27;;;;;;;10.27;1.40;;;9.40;99.90;;;;;;5023563;28;20041;-65
2021/11/21 11:23:53;;;;;;;14.15;1.23;;;9.50;99.90;;;;;;5021621;28;20537;-65
2021/11/21 11:26:23;;;;;;;6.72;1.40;;;9.70;99.90;;;;;;5005295;28;20033;-65
2021/11/21 11:28:55;;;;;;;9.02;0.77;;;9.70;99.90;;;;;;5008774;28;20061;-65
2021/11/21 11:31:25;;;;;;;5.63;0.88;;;9.70;99.90;;;;;;5026979;28;20116;-65
2021/11/21 11:33:57;;;;;;;5.78;0.50;;;9.60;99.90;;;;;;5008860;28;20033;-65
2021/11/21 11:36:25;;;;;;;4.13;0.45;;;9.50;99.90;;;;;;5020002;28;20056;-65
2021/11/21 11:39:18;;;;;;;5.43;0.50;;;9.40;99.90;;;;;;5010118;28;20042;-65
2021/11/21 11:41:44;;;;;;;8.80;0.80;;;9.30;99.90;;;;;;5020051;28;20421;-65
2021/11/21 11:44:10;;;;;;;5.10;0.50;;;9.20;99.90;;;;;;5025665;28;20048;-65
2021/11/21 11:46:39;;;;;;;8.95;1.27;;;9.10;99.90;;;;;;5002904;28;20057;-65
2021/11/21 11:49:09;;;;;;;5.35;0.70;;;9.10;99.90;;;;;;5027603;28;20485;-66
2021/11/21 11:51:38;;;;;;;9.10;2.40;;;9.00;99.90;;;;;;5005706;28;20541;-66
2021/11/21 11:54:15;;;;;;;8.98;2.80;;;9.00;99.90;;;;;;5007645;28;20041;-66
2021/11/21 11:56:42;;;;;;;7.13;0.90;;;9.00;99.90;;;;;;5017744;28;20038;-66
2021/11/21 11:59:11;;;;;;;7.28;1.00;;;9.00;99.90;;;;;;5027876;28;20077;-66
2021/11/21 12:01:41;;;;;;;3.85;0.60;;;8.90;99.90;;;;;;5021335;28;20052;-66
2021/11/21 12:04:16;;;;;;;7.28;0.73;;;8.90;99.90;;;;;;5024427;28;20038;-66
2021/11/21 12:06:48;;;;;;;10.45;1.27;;;8.80;99.90;;;;;;5005915;28;20599;-66
2021/11/21 12:09:19;;;;;;;8.43;0.75;;;8.70;99.90;;;;;;5029001;28;20509;-66
2021/11/21 12:12:05;;;;;;;6.55;0.73;;;8.70;99.90;;;;;;5019428;28;20500;-65
2021/11/21 12:14:32;;;;;;;6.70;0.80;;;8.80;99.90;;;;;;5023111;28;20042;-66
2021/11/21 12:17:04;;;;;;;8.30;0.60;;;9.00;99.90;;;;;;5021163;28;20045;-66
2021/11/21 12:19:50;;;;;;;2.63;0.50;;;9.10;99.90;;;;;;5031247;28;20412;-66
2021/11/21 12:22:34;;;;;;;3.75;0.13;;;9.20;99.90;;;;;;4995791;28;20094;-66
2021/11/21 12:25:05;;;;;;;3.42;0.35;;;9.10;99.90;;;;;;5027975;28;20045;-66
2021/11/21 12:27:34;;;;;;;1.83;0.30;;;8.90;99.90;;;;;;5022834;28;20571;-66
2021/11/21 12:30:12;;;;;;;2.22;0.20;;;8.80;99.90;;;;;;5013978;28;20046;-66
2021/11/21 12:32:48;;;;;;;2.50;0.25;;;8.70;99.90;;;;;;5007373;28;20497;-66
2021/11/21 12:35:36;;;;;;;6.10;0.35;;;8.60;99.90;;;;;;5027758;28;20226;-66
2021/11/21 12:38:05;;;;;;;2.55;0.40;;;8.60;99.90;;;;;;5020815;28;20107;-66
2021/11/21 12:40:44;;;;;;;2.80;0.20;;;8.50;99.90;;;;;;5029251;28;20045;-66
2021/11/21 12:43:13;;;;;;;4.15;0.20;;;8.40;99.90;;;;;;5023077;28;20116;-66
2021/11/21 12:45:44;;;;;;;4.10;0.40;;;8.40;99.90;;;;;;5028232;28;20057;-66
2021/11/21 12:48:12;;;;;;;3.83;0.38;;;8.40;99.90;;;;;;5021909;28;20038;-66
2021/11/21 12:50:50;;;;;;;5.15;0.43;;;8.30;99.90;;;;;;5030710;28;20534;-66